Time;durP1;ratioP1;P1;durP2;ratioP2;P2;SDS_P1;SDS_P2;PMS_P1;PMS_P2;Temp;Humidity;BMP_temperature;BMP_pressure;BME280_temperature;BME280_humidity;BME280_pressure;Samples;Min_cycle;Max_cycle;Signal;HPM_P1;HPM_P2
2024/03/30 00:02:28;;;;;;;0.40;0.40;;;;;;;26.71;28.39;97223.94;7392658;19;20022;-59
2024/03/30 00:04:54;;;;;;;0.40;0.30;;;;;;;26.48;28.59;97224.41;7398580;19;20010;-59
2024/03/30 00:07:21;;;;;;;0.57;0.57;;;;;;;26.54;28.59;97227.50;7401885;19;20011;-59
2024/03/30 00:09:49;;;;;;;0.47;0.47;;;;;;;26.91;28.29;97231.25;7400166;19;20014;-59
2024/03/30 00:12:15;;;;;;;0.50;0.50;;;;;;;26.80;28.46;97237.19;7399593;19;20353;-59
2024/03/30 00:14:42;;;;;;;0.45;0.45;;;;;;;26.77;28.21;97242.09;7399553;19;20007;-59
2024/03/30 00:17:08;;;;;;;0.30;0.30;;;;;;;26.78;28.28;97243.56;7398750;19;20015;-59
2024/03/30 00:19:38;;;;;;;0.75;0.75;;;;;;;26.73;28.34;97244.78;7404169;19;20340;-59
2024/03/30 00:22:05;;;;;;;0.40;0.40;;;;;;;26.71;28.13;97247.53;7399387;19;20035;-60
2024/03/30 00:24:32;;;;;;;0.30;0.30;;;;;;;26.92;28.03;97244.13;7399240;19;20014;-59
2024/03/30 00:26:58;;;;;;;0.65;0.65;;;;;;;26.96;28.09;97247.16;7397970;19;20485;-59
2024/03/30 00:29:25;;;;;;;2.92;1.40;;;;;;;27.27;27.71;97257.69;7401018;19;20410;-59
2024/03/30 00:31:51;;;;;;;0.50;0.50;;;;;;;28.03;26.72;97253.50;7397947;19;20419;-59
2024/03/30 00:34:17;;;;;;;1.40;0.55;;;;;;;28.17;26.78;97251.91;7398410;19;20099;-59
2024/03/30 00:36:43;;;;;;;0.50;0.50;;;;;;;28.18;26.91;97256.22;7398441;19;20025;-59
2024/03/30 00:39:11;;;;;;;7.72;1.33;;;;;;;28.46;26.45;97251.50;7402130;19;20086;-59
2024/03/30 00:41:39;;;;;;;0.68;0.68;;;;;;;27.33;27.57;97245.78;7397468;19;20011;-59
2024/03/30 00:44:05;;;;;;;0.40;0.40;;;;;;;27.50;26.96;97247.91;7399291;19;20758;-59
2024/03/30 00:46:32;;;;;;;1.45;0.90;;;;;;;27.42;26.77;97248.31;7395218;19;20486;-59
2024/03/30 00:48:58;;;;;;;0.47;0.47;;;;;;;27.54;26.67;97245.19;7401176;19;20017;-59
2024/03/30 00:51:24;;;;;;;0.50;0.40;;;;;;;27.99;26.74;97245.50;7396169;19;20034;-59
2024/03/30 00:53:51;;;;;;;0.28;0.28;;;;;;;27.91;26.28;97244.44;7397916;19;20033;-59
2024/03/30 00:56:17;;;;;;;2.15;0.50;;;;;;;27.93;26.31;97242.41;7398034;19;20034;-59
2024/03/30 00:58:43;;;;;;;0.45;0.45;;;;;;;27.62;26.75;97236.91;7400204;19;20010;-59
2024/03/30 01:01:10;;;;;;;0.43;0.43;;;;;;;27.64;26.99;97239.84;7397459;19;20042;-59
2024/03/30 01:03:36;;;;;;;0.30;0.30;;;;;;;27.50;26.64;97236.47;7396051;19;20017;-59
2024/03/30 01:06:03;;;;;;;0.50;0.50;;;;;;;27.65;26.54;97241.34;7395839;19;20022;-59
2024/03/30 01:08:29;;;;;;;0.50;0.50;;;;;;;27.69;26.85;97235.75;7397359;19;20011;-59
2024/03/30 01:10:59;;;;;;;0.55;0.55;;;;;;;27.55;26.57;97238.06;7397623;19;20022;-59
2024/03/30 01:13:26;;;;;;;0.63;0.63;;;;;;;27.62;26.72;97236.91;7397266;19;20038;-59
2024/03/30 01:15:52;;;;;;;0.55;0.55;;;;;;;27.59;26.85;97249.69;7393672;19;20026;-59
2024/03/30 01:18:19;;;;;;;0.32;0.32;;;;;;;27.53;26.69;97247.31;7399276;19;20041;-59
2024/03/30 01:20:46;;;;;;;0.50;0.50;;;;;;;27.55;26.53;97243.78;7396557;19;20019;-59
2024/03/30 01:23:13;;;;;;;0.30;0.30;;;;;;;27.25;27.00;97254.75;7397303;19;20011;-59
2024/03/30 01:25:39;;;;;;;0.43;0.43;;;;;;;27.80;26.68;97251.91;7396457;19;20023;-59
2024/03/30 01:28:09;;;;;;;0.30;0.30;;;;;;;27.94;26.28;97261.03;7393915;19;20354;-59
2024/03/30 01:30:35;;;;;;;0.38;0.38;;;;;;;27.86;26.95;97260.72;7396608;19;20736;-59
2024/03/30 01:33:02;;;;;;;0.40;0.40;;;;;;;27.72;26.71;97254.47;7396076;19;20032;-59
2024/03/30 01:35:28;;;;;;;1.13;0.60;;;;;;;27.40;27.18;97267.50;7396591;19;20066;-59
2024/03/30 01:37:54;;;;;;;5.00;0.60;;;;;;;27.94;26.72;97266.75;7395768;19;20019;-59
2024/03/30 01:40:20;;;;;;;1.95;0.45;;;;;;;27.23;27.24;97265.38;7396979;19;20588;-59
2024/03/30 01:42:46;;;;;;;0.47;0.47;;;;;;;27.00;27.07;97270.19;7396816;19;20018;-59
2024/03/30 01:45:12;;;;;;;1.65;0.75;;;;;;;27.30;27.09;97264.97;7396232;19;20018;-59
2024/03/30 01:47:38;;;;;;;0.52;0.52;;;;;;;27.39;27.31;97286.06;7394467;19;20006;-59
2024/03/30 01:50:06;;;;;;;0.30;0.30;;;;;;;27.33;27.03;97280.78;7399126;19;20022;-59
2024/03/30 01:52:36;;;;;;;0.95;0.60;;;;;;;28.07;26.61;97291.59;7396010;19;20089;-59
2024/03/30 01:55:04;;;;;;;0.35;0.35;;;;;;;26.78;27.96;97286.41;7395657;19;20018;-59
2024/03/30 01:57:32;;;;;;;0.30;0.30;;;;;;;26.50;27.65;97293.72;7395374;19;20083;-59
2024/03/30 01:59:58;;;;;;;0.30;0.30;;;;;;;26.19;27.79;97296.63;7395997;19;20025;-59
2024/03/30 02:02:27;;;;;;;0.60;0.60;;;;;;;26.54;27.35;97291.03;7394406;19;20144;-59
2024/03/30 02:04:54;;;;;;;0.47;0.45;;;;;;;26.86;27.08;97288.84;7396761;19;20021;-59
2024/03/30 02:07:20;;;;;;;3.85;1.67;;;;;;;26.26;27.43;97289.81;7394999;19;20355;-59
2024/03/30 02:09:47;;;;;;;0.25;0.15;;;;;;;26.11;27.36;97270.59;7396505;19;20011;-59
2024/03/30 02:12:14;;;;;;;0.40;0.40;;;;;;;27.46;26.45;97274.19;7395636;19;20030;-59
2024/03/30 02:14:41;;;;;;;3.60;0.93;;;;;;;28.04;26.03;97270.03;7395033;19;20014;-59
2024/03/30 02:17:07;;;;;;;0.55;0.55;;;;;;;26.78;27.07;97268.53;7394658;19;20373;-59
2024/03/30 02:19:42;;;;;;;1.17;0.85;;;;;;;26.38;26.92;97273.19;7399261;19;20013;-59
2024/03/30 02:22:08;;;;;;;0.60;0.60;;;;;;;26.32;26.91;97275.81;7395453;19;20027;-59
2024/03/30 02:24:34;;;;;;;0.70;0.70;;;;;;;26.69;27.08;97284.56;7395059;19;20014;-59
2024/03/30 02:27:00;;;;;;;0.32;0.32;;;;;;;26.63;26.78;97287.16;7393843;19;20018;-59
2024/03/30 02:29:30;;;;;;;0.60;0.60;;;;;;;28.13;25.76;97283.22;7396834;19;20026;-59
2024/03/30 02:31:56;;;;;;;0.50;0.50;;;;;;;29.36;24.94;97284.66;7394661;19;20018;-59
2024/03/30 02:34:22;;;;;;;0.63;0.52;;;;;;;29.64;24.37;97299.91;7394394;19;20006;-59
2024/03/30 02:36:49;;;;;;;0.60;0.60;;;;;;;28.99;25.12;97302.78;7394178;19;20014;-59
2024/03/30 02:39:15;;;;;;;7.72;1.13;;;;;;;28.68;25.32;97306.00;7398228;19;20078;-59
2024/03/30 02:41:41;;;;;;;0.70;0.57;;;;;;;27.94;25.55;97311.81;7392976;19;20041;-59
2024/03/30 02:44:07;;;;;;;0.40;0.40;;;;;;;28.44;25.59;97317.28;7395112;19;20015;-59
2024/03/30 02:46:33;;;;;;;0.40;0.40;;;;;;;28.53;25.00;97316.19;7391721;19;20011;-59
2024/03/30 02:48:59;;;;;;;0.50;0.50;;;;;;;28.28;25.62;97316.72;7394476;19;21610;-59
2024/03/30 02:51:25;;;;;;;0.20;0.20;;;;;;;28.39;25.08;97315.66;7397245;19;20015;-59
2024/03/30 02:53:51;;;;;;;0.40;0.40;;;;;;;28.44;25.03;97314.44;7392004;19;20082;-59
2024/03/30 02:56:17;;;;;;;0.47;0.47;;;;;;;28.08;25.24;97318.81;7393319;19;20010;-59
2024/03/30 02:58:43;;;;;;;0.77;0.75;;;;;;;28.07;25.25;97319.50;7394480;19;20007;-59
2024/03/30 03:01:10;;;;;;;0.50;0.50;;;;;;;28.08;25.66;97315.97;7393521;19;20019;-59
2024/03/30 03:03:36;;;;;;;0.35;0.35;;;;;;;27.98;25.67;97306.97;7396524;19;20006;-59
2024/03/30 03:06:02;;;;;;;0.65;0.60;;;;;;;27.89;25.50;97316.63;7393638;19;20010;-59
2024/03/30 03:08:28;;;;;;;0.68;0.68;;;;;;;27.71;25.39;97307.34;7394293;19;20014;-59
2024/03/30 03:10:54;;;;;;;0.80;0.80;;;;;;;27.79;25.59;97311.25;7392916;19;20369;-59
2024/03/30 03:13:20;;;;;;;0.60;0.60;;;;;;;27.89;25.45;97310.91;7395069;19;20011;-59
2024/03/30 03:15:47;;;;;;;0.90;0.90;;;;;;;27.86;25.70;97315.09;7394007;19;20038;-59
2024/03/30 03:18:13;;;;;;;0.40;0.40;;;;;;;27.81;25.49;97304.88;7393875;19;20015;-59
2024/03/30 03:20:40;;;;;;;2.85;0.63;;;;;;;28.69;24.93;97312.47;7393500;19;20506;-59
2024/03/30 03:23:06;;;;;;;0.40;0.40;;;;;;;28.55;25.08;97321.25;7392265;19;20031;-59
2024/03/30 03:25:32;;;;;;;0.40;0.40;;;;;;;28.39;25.13;97318.53;7395353;19;20032;-59
2024/03/30 03:27:59;;;;;;;0.65;0.65;;;;;;;27.36;25.94;97319.53;7391720;19;20514;-59
2024/03/30 03:30:25;;;;;;;2.42;1.45;;;;;;;27.11;25.97;97328.50;7393200;19;20085;-59
2024/03/30 03:32:51;;;;;;;12.95;1.17;;;;;;;27.01;26.15;97328.06;7393823;19;20090;-59
2024/03/30 03:35:17;;;;;;;0.40;0.40;;;;;;;26.97;26.04;97328.63;7392077;19;20018;-59
2024/03/30 03:37:43;;;;;;;0.47;0.35;;;;;;;28.28;25.32;97333.16;7394284;19;20017;-59
2024/03/30 03:40:09;;;;;;;0.88;0.88;;;;;;;28.53;24.71;97341.22;7396066;19;20086;-59
2024/03/30 03:42:35;;;;;;;4.57;0.88;;;;;;;27.60;25.73;97337.69;7400783;19;20467;-59
2024/03/30 03:45:02;;;;;;;0.50;0.50;;;;;;;27.48;25.91;97353.63;7400095;19;20086;-59
2024/03/30 03:47:28;;;;;;;0.30;0.30;;;;;;;27.48;25.56;97357.19;7398165;19;20034;-59
2024/03/30 03:49:54;;;;;;;0.40;0.40;;;;;;;27.50;25.48;97356.56;7401460;19;20019;-59
2024/03/30 03:52:20;;;;;;;5.53;1.75;;;;;;;27.63;25.35;97356.41;7400395;19;20013;-59
2024/03/30 03:54:46;;;;;;;1.55;0.73;;;;;;;27.73;25.45;97356.78;7400915;19;20022;-59
2024/03/30 03:57:13;;;;;;;4.35;1.25;;;;;;;28.02;25.16;97355.06;7400391;19;20007;-59
2024/03/30 03:59:39;;;;;;;0.60;0.50;;;;;;;28.11;25.27;97343.25;7399855;19;20018;-59
2024/03/30 04:02:05;;;;;;;0.57;0.57;;;;;;;28.80;24.98;97351.53;7399869;19;20624;-59
2024/03/30 04:04:31;;;;;;;0.70;0.70;;;;;;;28.36;25.42;97353.50;7399385;19;20018;-59
2024/03/30 04:06:58;;;;;;;0.35;0.35;;;;;;;28.35;25.32;97343.44;7398934;19;20481;-59
2024/03/30 04:09:24;;;;;;;0.45;0.45;;;;;;;28.25;25.15;97338.06;7403908;19;20348;-59
2024/03/30 04:11:50;;;;;;;1.30;1.20;;;;;;;28.37;25.27;97337.78;7399720;19;20015;-59
2024/03/30 04:14:17;;;;;;;1.00;1.00;;;;;;;28.38;25.31;97339.25;7399660;19;20033;-59
2024/03/30 04:16:43;;;;;;;0.55;0.55;;;;;;;28.62;24.71;97348.00;7399401;19;20018;-59
2024/03/30 04:19:09;;;;;;;4.18;1.33;;;;;;;28.63;24.93;97346.63;7401249;19;20022;-59
2024/03/30 04:21:35;;;;;;;0.65;0.65;;;;;;;28.24;25.42;97348.03;7399383;19;20016;-59
2024/03/30 04:24:01;;;;;;;0.35;0.35;;;;;;;28.70;24.93;97337.56;7399381;19;20018;-59
2024/03/30 04:26:27;;;;;;;0.65;0.52;;;;;;;28.20;25.41;97347.88;7399188;19;20010;-59
2024/03/30 04:28:53;;;;;;;0.30;0.30;;;;;;;28.11;25.45;97345.41;7402162;19;20385;-59
2024/03/30 04:31:19;;;;;;;3.53;1.10;;;;;;;28.26;25.05;97344.53;7399071;19;20570;-59
2024/03/30 04:33:45;;;;;;;0.57;0.57;;;;;;;29.01;24.31;97342.22;7399332;19;20347;-59
2024/03/30 04:36:11;;;;;;;0.63;0.47;;;;;;;29.08;24.63;97346.78;7398995;19;20026;-59
2024/03/30 04:38:37;;;;;;;0.55;0.55;;;;;;;28.68;24.63;97345.34;7400266;19;20014;-59
2024/03/30 04:41:05;;;;;;;0.40;0.40;;;;;;;28.92;24.76;97334.75;7398152;19;20011;-59
2024/03/30 04:43:35;;;;;;;1.23;1.13;;;;;;;28.37;25.27;97352.09;7398992;19;20017;-59
2024/03/30 04:46:04;;;;;;;0.20;0.20;;;;;;;27.74;25.56;97351.81;7398802;19;20019;-58
2024/03/30 04:48:30;;;;;;;0.60;0.60;;;;;;;27.44;25.79;97347.75;7399003;19;20007;-59
2024/03/30 04:50:59;;;;;;;0.70;0.70;;;;;;;27.10;25.89;97340.56;7401006;19;20360;-59
2024/03/30 04:53:30;;;;;;;2.92;1.00;;;;;;;27.01;26.18;97353.75;7398266;19;20029;-59
2024/03/30 04:55:57;;;;;;;0.37;0.37;;;;;;;26.89;26.00;97351.16;7396896;19;20022;-59
2024/03/30 04:58:28;;;;;;;1.02;0.93;;;;;;;27.20;26.05;97358.84;7399513;19;20021;-59
2024/03/30 05:01:02;;;;;;;4.75;1.17;;;;;;;27.47;25.56;97352.88;7396765;19;20099;-59
2024/03/30 05:03:28;;;;;;;0.32;0.32;;;;;;;27.52;25.88;97353.78;7401038;19;20032;-59
2024/03/30 05:05:56;;;;;;;9.15;1.08;;;;;;;27.17;25.83;97350.84;7398452;19;20011;-59
2024/03/30 05:08:22;;;;;;;0.88;0.88;;;;;;;26.92;25.90;97363.41;7397712;19;20010;-59
2024/03/30 05:10:50;;;;;;;1.30;0.82;;;;;;;26.94;26.04;97349.91;7397963;19;20091;-58
2024/03/30 05:13:16;;;;;;;1.45;0.70;;;;;;;27.01;25.71;97354.50;7397052;19;20018;-59
2024/03/30 05:15:43;;;;;;;0.50;0.50;;;;;;;26.99;25.38;97357.28;7396422;19;20015;-59
2024/03/30 05:18:11;;;;;;;0.28;0.28;;;;;;;26.99;25.79;97362.25;7397138;19;20015;-58
2024/03/30 05:20:50;;;;;;;0.65;0.65;;;;;;;27.11;26.05;97357.06;7398413;19;20090;-59
2024/03/30 05:23:18;;;;;;;1.75;1.40;;;;;;;26.96;25.81;97369.28;7397343;19;20014;-58
2024/03/30 05:25:45;;;;;;;0.60;0.60;;;;;;;26.89;25.79;97379.72;7397237;19;20010;-58
2024/03/30 05:28:13;;;;;;;1.38;0.50;;;;;;;26.84;26.12;97380.16;7395014;19;20003;-59
2024/03/30 05:30:39;;;;;;;1.23;1.13;;;;;;;26.87;26.13;97373.91;7396877;19;20013;-59
2024/03/30 05:33:06;;;;;;;1.25;1.25;;;;;;;26.83;26.57;97379.44;7400691;19;20022;-60
2024/03/30 05:35:33;;;;;;;1.75;1.13;;;;;;;26.82;26.34;97371.50;7396120;19;20355;-59
2024/03/30 05:37:59;;;;;;;1.52;1.48;;;;;;;26.83;26.13;97384.44;7398231;19;20018;-58
2024/03/30 05:40:25;;;;;;;0.60;0.60;;;;;;;26.59;27.12;97378.34;7396337;19;20034;-58
2024/03/30 05:42:52;;;;;;;0.47;0.30;;;;;;;26.49;27.09;97375.03;7395677;19;20010;-58
2024/03/30 05:45:18;;;;;;;2.95;1.42;;;;;;;26.46;27.46;97379.19;7395415;19;20011;-58
2024/03/30 05:47:44;;;;;;;0.77;0.77;;;;;;;26.36;27.19;97384.44;7394832;19;20010;-58
2024/03/30 05:50:10;;;;;;;0.60;0.60;;;;;;;26.48;27.44;97385.00;7398382;19;20011;-58
2024/03/30 05:52:36;;;;;;;1.05;0.50;;;;;;;26.69;27.39;97375.19;7396733;19;20010;-58
2024/03/30 05:55:03;;;;;;;4.88;1.20;;;;;;;26.78;27.27;97382.78;7399503;19;20018;-58
2024/03/30 05:57:29;;;;;;;0.80;0.80;;;;;;;26.88;27.66;97371.78;7396278;19;20014;-58
2024/03/30 05:59:55;;;;;;;2.42;1.60;;;;;;;26.85;27.37;97375.94;7395468;19;20325;-58
2024/03/30 06:02:22;;;;;;;0.52;0.50;;;;;;;27.14;27.33;97372.19;7395062;19;20522;-58
2024/03/30 06:04:48;;;;;;;0.88;0.57;;;;;;;26.70;28.11;97374.56;7396525;19;20014;-58
2024/03/30 06:07:14;;;;;;;0.45;0.45;;;;;;;26.85;27.71;97370.97;7394749;19;20027;-58
2024/03/30 06:09:40;;;;;;;0.65;0.65;;;;;;;27.93;27.16;97373.28;7396035;19;20011;-58
2024/03/30 06:12:06;;;;;;;1.50;0.95;;;;;;;27.25;27.42;97382.63;7393836;19;20028;-58
2024/03/30 06:14:33;;;;;;;1.23;0.98;;;;;;;26.33;28.51;97380.03;7393948;19;20490;-58
2024/03/30 06:16:59;;;;;;;0.73;0.45;;;;;;;26.48;28.63;97379.28;7399481;19;20015;-59
2024/03/30 06:19:25;;;;;;;1.80;0.77;;;;;;;26.13;28.63;97384.81;7395599;19;20013;-58
2024/03/30 06:21:52;;;;;;;2.50;0.95;;;;;;;25.94;28.84;97385.31;7395865;19;20014;-58
2024/03/30 06:24:18;;;;;;;3.20;0.77;;;;;;;25.86;28.89;97390.63;7395274;19;20014;-58
2024/03/30 06:26:44;;;;;;;1.23;1.17;;;;;;;26.21;28.71;97391.63;7393984;19;20010;-58
2024/03/30 06:29:10;;;;;;;0.35;0.35;;;;;;;26.37;28.75;97394.47;7397839;19;20368;-58
2024/03/30 06:31:37;;;;;;;2.42;0.68;;;;;;;26.38;28.36;97404.50;7394966;19;20018;-58
2024/03/30 06:34:06;;;;;;;3.70;0.95;;;;;;;26.29;28.63;97402.69;7394562;19;20010;-58
2024/03/30 06:36:32;;;;;;;1.55;1.40;;;;;;;26.47;28.34;97397.78;7394343;19;20363;-58
2024/03/30 06:38:59;;;;;;;0.60;0.60;;;;;;;26.68;28.67;97399.44;7397781;19;20011;-58
2024/03/30 06:44:11;;;;;;;0.55;0.50;;;;;;;28.47;27.11;97419.06;7395073;19;20022;-58
2024/03/30 06:46:37;;;;;;;7.97;2.22;;;;;;;29.31;26.43;97412.09;7394320;19;20098;-58
2024/03/30 06:49:03;;;;;;;6.32;1.25;;;;;;;29.38;26.53;97410.91;7397648;19;20022;-58
2024/03/30 06:51:29;;;;;;;1.52;1.25;;;;;;;29.67;26.70;97409.72;7393522;19;20019;-58
2024/03/30 06:53:56;;;;;;;0.65;0.65;;;;;;;29.60;26.16;97423.16;7394495;19;20010;-58
2024/03/30 06:56:22;;;;;;;1.80;0.82;;;;;;;29.44;26.18;97419.72;7394434;19;20014;-58
2024/03/30 06:58:49;;;;;;;2.35;0.80;;;;;;;29.49;26.37;97414.84;7396282;19;20018;-58
2024/03/30 07:01:15;;;;;;;0.82;0.57;;;;;;;29.46;26.40;97428.41;7393543;19;20034;-58
2024/03/30 07:03:42;;;;;;;5.93;1.15;;;;;;;29.75;26.23;97422.25;7393103;19;20014;-58
2024/03/30 07:06:09;;;;;;;0.38;0.38;;;;;;;30.00;26.10;97420.88;7393163;19;20022;-58
2024/03/30 07:08:37;;;;;;;1.75;0.93;;;;;;;30.03;26.31;97424.53;7395153;19;20337;-58
2024/03/30 07:11:03;;;;;;;2.25;1.13;;;;;;;29.89;26.50;97425.56;7394505;19;20010;-58
2024/03/30 07:13:29;;;;;;;0.75;0.75;;;;;;;29.73;26.66;97430.75;7393314;19;20030;-58
2024/03/30 07:15:56;;;;;;;2.17;0.82;;;;;;;29.71;26.61;97429.94;7392351;19;20017;-57
2024/03/30 07:18:23;;;;;;;1.30;0.77;;;;;;;29.48;27.08;97434.19;7392611;19;20010;-58
2024/03/30 07:20:49;;;;;;;1.98;0.63;;;;;;;29.11;27.10;97435.03;7394320;19;20335;-57
2024/03/30 07:23:16;;;;;;;1.02;1.02;;;;;;;28.96;27.67;97435.94;7392783;19;20015;-57
2024/03/30 07:25:44;;;;;;;9.82;1.05;;;;;;;29.62;27.00;97436.81;7392371;19;20368;-57
2024/03/30 07:28:10;;;;;;;1.05;1.05;;;;;;;30.09;26.37;97436.94;7392781;19;20029;-57
2024/03/30 07:30:40;;;;;;;0.35;0.35;;;;;;;29.87;26.88;97434.09;7392706;19;20482;-57
2024/03/30 07:33:07;;;;;;;2.45;0.80;;;;;;;29.12;27.06;97444.38;7396180;19;20014;-57
2024/03/30 07:35:33;;;;;;;0.47;0.47;;;;;;;29.55;26.93;97450.22;7392525;19;20014;-57
2024/03/30 07:38:00;;;;;;;1.17;1.08;;;;;;;29.83;27.06;97456.19;7394381;19;20015;-57
2024/03/30 07:40:26;;;;;;;0.68;0.50;;;;;;;29.83;26.96;97461.94;7392953;19;20351;-58
2024/03/30 07:42:52;;;;;;;0.50;0.50;;;;;;;30.14;27.07;97470.13;7392893;19;20011;-57
2024/03/30 07:45:18;;;;;;;0.85;0.82;;;;;;;30.27;27.01;97469.13;7396088;19;20404;-57
2024/03/30 07:47:44;;;;;;;2.22;1.65;;;;;;;30.26;26.79;97467.63;7392027;19;20018;-57
2024/03/30 07:50:11;;;;;;;7.45;0.95;;;;;;;30.08;26.89;97474.94;7395610;19;20018;-57
2024/03/30 07:52:38;;;;;;;1.13;0.38;;;;;;;30.25;27.16;97471.94;7392370;19;20010;-57
2024/03/30 07:55:06;;;;;;;4.10;1.70;;;;;;;31.85;25.90;97477.25;7393610;19;20011;-57
2024/03/30 07:57:32;;;;;;;2.67;0.70;;;;;;;30.24;27.08;97481.94;7391507;19;20359;-57
2024/03/30 07:59:58;;;;;;;1.63;1.38;;;;;;;30.40;27.36;97481.75;7392414;19;20010;-57
2024/03/30 08:02:24;;;;;;;0.68;0.63;;;;;;;30.49;27.23;97484.16;7391443;19;20015;-57
2024/03/30 08:04:51;;;;;;;5.38;0.95;;;;;;;30.39;27.73;97481.00;7393369;19;20011;-57
2024/03/30 08:07:17;;;;;;;4.50;1.15;;;;;;;30.44;27.24;97478.97;7391392;19;20011;-57
2024/03/30 08:09:43;;;;;;;0.38;0.30;;;;;;;30.45;27.30;97471.84;7392021;19;20010;-57
2024/03/30 08:12:09;;;;;;;0.65;0.65;;;;;;;30.31;27.27;97491.50;7391611;19;20467;-57
2024/03/30 08:14:35;;;;;;;0.40;0.40;;;;;;;30.47;27.38;97481.25;7392098;19;20378;-57
2024/03/30 08:17:01;;;;;;;7.28;1.17;;;;;;;30.00;27.64;97492.63;7392262;19;20015;-57
2024/03/30 08:19:27;;;;;;;0.90;0.90;;;;;;;29.82;27.95;97489.88;7391534;19;20003;-57
2024/03/30 08:21:54;;;;;;;2.30;0.85;;;;;;;29.84;28.05;97492.81;7391923;19;20006;-57
2024/03/30 08:24:20;;;;;;;2.45;1.30;;;;;;;29.95;28.05;97480.28;7392526;19;20018;-57
2024/03/30 08:26:46;;;;;;;1.83;1.73;;;;;;;29.91;28.29;97485.88;7393426;19;20014;-58
2024/03/30 08:29:12;;;;;;;0.52;0.52;;;;;;;29.97;28.55;97493.97;7396651;19;20066;-57
2024/03/30 08:31:38;;;;;;;0.63;0.63;;;;;;;30.36;28.33;97493.09;7394989;19;20006;-58
2024/03/30 08:34:05;;;;;;;1.73;0.65;;;;;;;30.60;28.51;97493.84;7396104;19;20451;-57
2024/03/30 08:36:31;;;;;;;1.67;1.05;;;;;;;30.45;28.81;97489.78;7400550;19;20018;-58
2024/03/30 08:38:57;;;;;;;6.68;0.65;;;;;;;31.29;27.69;97485.09;7399684;19;20007;-58
2024/03/30 08:41:23;;;;;;;0.40;0.32;;;;;;;31.78;27.63;97490.00;7394071;19;20368;-58
2024/03/30 08:43:49;;;;;;;0.68;0.30;;;;;;;31.71;27.59;97494.16;7393955;19;20029;-58
2024/03/30 08:46:15;;;;;;;2.50;0.47;;;;;;;31.67;27.33;97494.03;7399426;19;20011;-58
2024/03/30 08:48:41;;;;;;;0.50;0.50;;;;;;;31.65;27.48;97497.59;7395048;19;20155;-58
2024/03/30 08:51:08;;;;;;;0.50;0.40;;;;;;;31.74;27.55;97504.31;7397792;19;20402;-58
2024/03/30 08:53:34;;;;;;;0.35;0.35;;;;;;;31.93;27.21;97509.84;7398641;19;20013;-58
2024/03/30 08:56:01;;;;;;;1.25;0.70;;;;;;;32.01;27.21;97512.97;7401626;19;20034;-58
2024/03/30 08:58:27;;;;;;;1.05;0.75;;;;;;;32.59;26.75;97512.94;7397928;19;20018;-58
2024/03/30 09:00:54;;;;;;;4.32;1.15;;;;;;;32.66;26.52;97517.44;7397728;19;20021;-58
2024/03/30 09:03:20;;;;;;;0.20;0.20;;;;;;;32.50;27.06;97522.81;7397600;19;20090;-58
2024/03/30 09:05:46;;;;;;;0.52;0.43;;;;;;;32.33;26.88;97526.69;7396042;19;20022;-57
2024/03/30 09:08:13;;;;;;;0.47;0.40;;;;;;;32.56;26.62;97526.56;7399061;19;20360;-58
2024/03/30 09:10:42;;;;;;;5.88;0.50;;;;;;;32.44;26.23;97526.25;7396240;19;20015;-58
2024/03/30 09:13:08;;;;;;;1.13;1.00;;;;;;;32.42;26.61;97523.31;7397752;19;20007;-58
2024/03/30 09:15:34;;;;;;;2.08;0.63;;;;;;;32.85;26.88;97522.88;7397300;19;20050;-58
2024/03/30 09:18:02;;;;;;;2.92;0.70;;;;;;;32.54;27.05;97517.13;7397092;19;20489;-58
2024/03/30 09:20:28;;;;;;;4.70;0.93;;;;;;;32.67;26.85;97513.84;7401401;19;20014;-58
2024/03/30 09:22:54;;;;;;;0.50;0.20;;;;;;;32.69;26.56;97516.03;7396709;19;20470;-58
2024/03/30 09:25:21;;;;;;;0.30;0.28;;;;;;;32.67;26.15;97524.63;7397419;19;20474;-58
2024/03/30 09:27:47;;;;;;;0.90;0.90;;;;;;;32.73;26.58;97516.84;7395978;19;20027;-58
2024/03/30 09:30:13;;;;;;;0.30;0.20;;;;;;;34.04;25.49;97510.88;7399729;19;20082;-58
2024/03/30 09:32:39;;;;;;;2.17;0.77;;;;;;;34.27;25.51;97503.28;7395632;19;20037;-58
2024/03/30 09:35:08;;;;;;;0.45;0.45;;;;;;;34.80;25.25;97516.38;7396740;19;20034;-58
2024/03/30 09:37:35;;;;;;;2.95;0.70;;;;;;;35.48;24.85;97517.28;7396642;19;20033;-58
2024/03/30 09:40:02;;;;;;;0.20;0.20;;;;;;;35.68;24.05;97508.09;7395944;19;20017;-58
2024/03/30 09:42:28;;;;;;;2.75;0.25;;;;;;;35.15;24.38;97515.41;7396717;19;20015;-58
2024/03/30 09:44:54;;;;;;;0.75;0.47;;;;;;;33.42;25.68;97512.53;7395325;19;20471;-58
2024/03/30 09:47:23;;;;;;;0.52;0.52;;;;;;;33.23;25.30;97516.50;7395640;19;20010;-58
2024/03/30 09:49:51;;;;;;;0.47;0.22;;;;;;;33.44;25.66;97527.75;7398705;19;20014;-58
2024/03/30 09:52:20;;;;;;;4.20;1.08;;;;;;;33.19;25.74;97522.91;7400316;19;20083;-58
2024/03/30 09:54:50;;;;;;;0.17;0.10;;;;;;;32.97;25.44;97524.56;7395675;19;20018;-58
2024/03/30 09:57:17;;;;;;;2.95;0.28;;;;;;;32.92;25.58;97529.50;7396720;19;20050;-58
2024/03/30 09:59:44;;;;;;;1.02;0.43;;;;;;;33.01;25.48;97528.31;7395853;19;20006;-58
2024/03/30 10:02:13;;;;;;;0.13;0.13;;;;;;;32.80;25.61;97532.88;7399889;19;20011;-58
2024/03/30 10:04:39;;;;;;;4.65;0.47;;;;;;;33.04;25.69;97540.63;7395916;19;20021;-58
2024/03/30 10:07:24;;;;;;;0.57;0.35;;;;;;;33.54;24.78;97541.69;7394778;19;20344;-58
2024/03/30 10:09:58;;;;;;;6.70;0.68;;;;;;;32.95;25.39;97538.94;7395857;19;20007;-58
2024/03/30 10:12:32;;;;;;;2.10;0.43;;;;;;;33.66;24.76;97541.91;7398562;19;20367;-58
2024/03/30 10:15:05;;;;;;;11.93;0.80;;;;;;;34.76;24.00;97533.69;7395501;19;20014;-58
2024/03/30 10:17:31;;;;;;;4.78;0.63;;;;;;;34.90;24.05;97528.81;7395214;19;20051;-58
2024/03/30 10:19:58;;;;;;;0.20;0.15;;;;;;;35.19;23.98;97538.66;7394694;19;20037;-58
2024/03/30 10:22:25;;;;;;;3.83;0.47;;;;;;;34.86;24.32;97536.72;7395505;19;20018;-58
2024/03/30 10:24:55;;;;;;;1.65;0.30;;;;;;;35.16;24.23;97542.19;7399327;19;20034;-58
2024/03/30 10:27:22;;;;;;;0.10;0.10;;;;;;;35.27;23.73;97538.00;7394678;19;20380;-58
2024/03/30 10:29:48;;;;;;;5.82;0.20;;;;;;;35.67;24.14;97545.00;7394922;19;20050;-58
2024/03/30 10:32:14;;;;;;;8.13;0.20;;;;;;;35.49;23.46;97539.03;7394522;19;20478;-58
2024/03/30 10:34:40;;;;;;;3.45;0.50;;;;;;;35.40;23.04;97540.34;7393132;19;20463;-58
2024/03/30 10:37:07;;;;;;;1.52;0.60;;;;;;;35.38;22.44;97540.31;7398468;19;20355;-58
2024/03/30 10:39:33;;;;;;;0.10;0.00;;;;;;;35.65;22.84;97555.84;7395288;19;20021;-58
2024/03/30 10:41:59;;;;;;;0.10;0.00;;;;;;;35.36;22.66;97559.84;7394610;19;20037;-58
2024/03/30 10:44:29;;;;;;;2.85;0.95;;;;;;;35.08;22.77;97547.88;7395314;19;20062;-58
2024/03/30 10:46:56;;;;;;;6.03;0.65;;;;;;;35.98;22.40;97543.19;7397303;19;20006;-58
2024/03/30 10:49:25;;;;;;;1.17;0.60;;;;;;;35.99;22.74;97549.72;7393160;19;20038;-58
2024/03/30 10:51:52;;;;;;;2.30;0.68;;;;;;;35.97;22.80;97549.69;7393785;19;20078;-58
2024/03/30 10:54:19;;;;;;;0.10;0.00;;;;;;;35.79;22.33;97559.66;7393831;19;20018;-59
2024/03/30 10:56:47;;;;;;;5.18;1.02;;;;;;;36.12;22.08;97557.09;7396598;19;20015;-58
2024/03/30 10:59:18;;;;;;;0.10;0.00;;;;;;;35.93;22.03;97555.44;7394059;19;20014;-58
2024/03/30 11:01:49;;;;;;;0.10;0.10;;;;;;;35.53;22.57;97553.56;7392591;19;20037;-58
2024/03/30 11:04:16;;;;;;;;;;;;;;;34.93;22.69;97549.84;7394893;19;20050;-58
2024/03/30 11:06:44;;;;;;;0.20;0.20;;;;;;;35.09;22.77;97550.06;7394458;19;19914;-58
2024/03/30 11:09:12;;;;;;;0.32;0.20;;;;;;;35.02;23.27;97548.56;7397974;19;20035;-58
2024/03/30 11:11:39;;;;;;;6.03;1.25;;;;;;;34.83;22.85;97549.69;7393104;19;20015;-58
2024/03/30 11:14:06;;;;;;;0.40;0.20;;;;;;;35.34;22.53;97551.13;7394267;19;20021;-58
2024/03/30 11:16:55;;;;;;;0.73;0.17;;;;;;;35.02;22.41;97554.34;7393288;19;20029;-58
2024/03/30 11:19:34;;;;;;;2.45;0.43;;;;;;;35.12;22.58;97563.16;7397269;19;20101;-58
2024/03/30 11:22:16;;;;;;;0.10;0.10;;;;;;;34.67;22.37;97563.91;7392805;19;20793;-58
2024/03/30 11:24:53;;;;;;;0.10;0.10;;;;;;;34.50;22.56;97559.28;7393748;19;20074;-58
2024/03/30 11:27:28;;;;;;;0.10;0.10;;;;;;;34.65;22.67;97569.69;7392884;19;20074;-59
2024/03/30 11:30:05;;;;;;;1.42;0.38;;;;;;;34.55;22.38;97566.59;7393245;19;20010;-58
2024/03/30 11:32:35;;;;;;;0.20;0.13;;;;;;;34.78;22.67;97566.25;7393271;19;20006;-58
2024/03/30 11:35:27;;;;;;;0.30;0.20;;;;;;;35.23;22.38;97578.47;7392940;19;20028;-58
2024/03/30 11:37:57;;;;;;;0.10;0.10;;;;;;;35.58;22.08;97560.88;7393774;19;20459;-58